sensor_id;sensor_type;location;lat;lon;timestamp;P1;durP1;ratioP1;P2;durP2;ratioP2
10987;SDS011;5547;42.672;23.230;2023-03-01T00:00:36;8.07;;;5.88;;
10987;SDS011;5547;42.672;23.230;2023-03-01T00:03:36;9.53;;;6.37;;
10987;SDS011;5547;42.672;23.230;2023-03-01T00:06:37;8.83;;;6.43;;
10987;SDS011;5547;42.672;23.230;2023-03-01T00:09:37;8.33;;;6.60;;
10987;SDS011;5547;42.672;23.230;2023-03-01T00:12:38;8.45;;;6.30;;
10987;SDS011;5547;42.672;23.230;2023-03-01T00:15:39;8.57;;;6.40;;
10987;SDS011;5547;42.672;23.230;2023-03-01T00:18:41;7.75;;;6.03;;
10987;SDS011;5547;42.672;23.230;2023-03-01T00:21:42;7.90;;;6.05;;
10987;SDS011;5547;42.672;23.230;2023-03-01T00:24:42;8.87;;;6.33;;
10987;SDS011;5547;42.672;23.230;2023-03-01T00:27:43;9.85;;;6.65;;
10987;SDS011;5547;42.672;23.230;2023-03-01T00:30:43;7.90;;;6.37;;
10987;SDS011;5547;42.672;23.230;2023-03-01T00:33:44;7.60;;;5.83;;
10987;SDS011;5547;42.672;23.230;2023-03-01T00:36:45;7.43;;;6.00;;
10987;SDS011;5547;42.672;23.230;2023-03-01T00:39:46;7.28;;;6.13;;
10987;SDS011;5547;42.672;23.230;2023-03-01T00:42:46;7.97;;;6.40;;
10987;SDS011;5547;42.672;23.230;2023-03-01T00:45:46;8.40;;;6.20;;
10987;SDS011;5547;42.672;23.230;2023-03-01T00:48:47;7.37;;;5.80;;
10987;SDS011;5547;42.672;23.230;2023-03-01T00:51:47;6.60;;;5.18;;
10987;SDS011;5547;42.672;23.230;2023-03-01T00:54:48;7.00;;;5.20;;
10987;SDS011;5547;42.672;23.230;2023-03-01T00:57:48;5.93;;;5.33;;
10987;SDS011;5547;42.672;23.230;2023-03-01T01:00:48;6.50;;;5.33;;
10987;SDS011;5547;42.672;23.230;2023-03-01T01:03:59;5.70;;;4.82;;
10987;SDS011;5547;42.672;23.230;2023-03-01T01:07:03;6.40;;;5.45;;
10987;SDS011;5547;42.672;23.230;2023-03-01T01:10:05;6.67;;;5.33;;
10987;SDS011;5547;42.672;23.230;2023-03-01T01:13:06;6.13;;;4.70;;
10987;SDS011;5547;42.672;23.230;2023-03-01T01:16:07;5.67;;;4.60;;
10987;SDS011;5547;42.672;23.230;2023-03-01T01:19:08;5.70;;;4.55;;
10987;SDS011;5547;42.672;23.230;2023-03-01T01:22:10;5.37;;;4.40;;
10987;SDS011;5547;42.672;23.230;2023-03-01T01:25:10;5.10;;;4.32;;
10987;SDS011;5547;42.672;23.230;2023-03-01T01:28:11;4.70;;;4.20;;
10987;SDS011;5547;42.672;23.230;2023-03-01T01:31:11;5.33;;;4.10;;
10987;SDS011;5547;42.672;23.230;2023-03-01T01:34:13;4.70;;;4.10;;
10987;SDS011;5547;42.672;23.230;2023-03-01T01:37:15;4.70;;;4.18;;
10987;SDS011;5547;42.672;23.230;2023-03-01T01:40:16;4.93;;;3.90;;
10987;SDS011;5547;42.672;23.230;2023-03-01T01:43:18;4.77;;;3.97;;
10987;SDS011;5547;42.672;23.230;2023-03-01T01:46:30;4.93;;;3.63;;
10987;SDS011;5547;42.672;23.230;2023-03-01T01:49:36;4.90;;;4.05;;
10987;SDS011;5547;42.672;23.230;2023-03-01T01:52:45;4.38;;;3.70;;
10987;SDS011;5547;42.672;23.230;2023-03-01T01:55:49;3.53;;;3.20;;
10987;SDS011;5547;42.672;23.230;2023-03-01T01:58:54;3.53;;;3.15;;
10987;SDS011;5547;42.672;23.230;2023-03-01T02:01:56;3.65;;;3.08;;
10987;SDS011;5547;42.672;23.230;2023-03-01T02:05:08;3.40;;;3.10;;
10987;SDS011;5547;42.672;23.230;2023-03-01T02:08:12;3.33;;;3.03;;
10987;SDS011;5547;42.672;23.230;2023-03-01T02:11:14;3.45;;;2.90;;
10987;SDS011;5547;42.672;23.230;2023-03-01T02:14:17;3.17;;;2.88;;
10987;SDS011;5547;42.672;23.230;2023-03-01T02:17:17;4.70;;;4.30;;
10987;SDS011;5547;42.672;23.230;2023-03-01T02:23:46;3.42;;;3.13;;
10987;SDS011;5547;42.672;23.230;2023-03-01T02:26:48;3.30;;;3.00;;
10987;SDS011;5547;42.672;23.230;2023-03-01T02:29:51;3.80;;;3.43;;
10987;SDS011;5547;42.672;23.230;2023-03-01T02:32:53;4.18;;;3.25;;
10987;SDS011;5547;42.672;23.230;2023-03-01T02:39:40;3.78;;;3.35;;
10987;SDS011;5547;42.672;23.230;2023-03-01T02:42:50;3.63;;;3.33;;
10987;SDS011;5547;42.672;23.230;2023-03-01T02:45:56;3.30;;;3.00;;
10987;SDS011;5547;42.672;23.230;2023-03-01T02:48:58;3.30;;;3.00;;
10987;SDS011;5547;42.672;23.230;2023-03-01T02:55:18;3.42;;;3.13;;
10987;SDS011;5547;42.672;23.230;2023-03-01T02:58:19;4.00;;;3.60;;
10987;SDS011;5547;42.672;23.230;2023-03-01T03:01:19;3.83;;;3.50;;
10987;SDS011;5547;42.672;23.230;2023-03-01T03:04:20;4.03;;;3.63;;
10987;SDS011;5547;42.672;23.230;2023-03-01T03:07:21;4.53;;;4.10;;
10987;SDS011;5547;42.672;23.230;2023-03-01T03:10:22;4.78;;;4.30;;
10987;SDS011;5547;42.672;23.230;2023-03-01T03:13:24;4.53;;;4.00;;
10987;SDS011;5547;42.672;23.230;2023-03-01T03:16:28;5.07;;;4.28;;
10987;SDS011;5547;42.672;23.230;2023-03-01T03:19:29;5.03;;;4.53;;
10987;SDS011;5547;42.672;23.230;2023-03-01T03:22:30;6.32;;;5.60;;
10987;SDS011;5547;42.672;23.230;2023-03-01T03:25:31;7.10;;;5.97;;
10987;SDS011;5547;42.672;23.230;2023-03-01T03:28:32;7.53;;;6.40;;
10987;SDS011;5547;42.672;23.230;2023-03-01T03:31:33;7.30;;;6.15;;
10987;SDS011;5547;42.672;23.230;2023-03-01T03:34:34;7.17;;;6.10;;
10987;SDS011;5547;42.672;23.230;2023-03-01T03:37:38;7.72;;;6.10;;
10987;SDS011;5547;42.672;23.230;2023-03-01T03:41:00;7.57;;;6.63;;
10987;SDS011;5547;42.672;23.230;2023-03-01T03:44:02;7.93;;;6.20;;
10987;SDS011;5547;42.672;23.230;2023-03-01T03:47:03;7.40;;;5.40;;
10987;SDS011;5547;42.672;23.230;2023-03-01T03:50:03;7.07;;;5.88;;
10987;SDS011;5547;42.672;23.230;2023-03-01T03:53:08;7.93;;;6.30;;
10987;SDS011;5547;42.672;23.230;2023-03-01T03:56:11;6.90;;;5.43;;
10987;SDS011;5547;42.672;23.230;2023-03-01T03:59:11;7.40;;;5.70;;
10987;SDS011;5547;42.672;23.230;2023-03-01T04:02:12;8.57;;;5.85;;
10987;SDS011;5547;42.672;23.230;2023-03-01T04:05:13;7.00;;;4.87;;
10987;SDS011;5547;42.672;23.230;2023-03-01T04:08:16;8.10;;;5.95;;
10987;SDS011;5547;42.672;23.230;2023-03-01T04:11:19;6.37;;;4.90;;
10987;SDS011;5547;42.672;23.230;2023-03-01T04:14:25;6.70;;;4.80;;
10987;SDS011;5547;42.672;23.230;2023-03-01T04:17:26;5.97;;;4.60;;
10987;SDS011;5547;42.672;23.230;2023-03-01T04:20:28;6.20;;;4.57;;
10987;SDS011;5547;42.672;23.230;2023-03-01T04:23:30;6.30;;;4.57;;
10987;SDS011;5547;42.672;23.230;2023-03-01T04:26:31;6.10;;;4.70;;
10987;SDS011;5547;42.672;23.230;2023-03-01T04:29:31;6.60;;;5.17;;
10987;SDS011;5547;42.672;23.230;2023-03-01T04:32:31;5.93;;;4.53;;
10987;SDS011;5547;42.672;23.230;2023-03-01T04:35:32;6.13;;;4.63;;
10987;SDS011;5547;42.672;23.230;2023-03-01T04:38:32;6.63;;;5.10;;
10987;SDS011;5547;42.672;23.230;2023-03-01T04:41:33;6.13;;;5.20;;
10987;SDS011;5547;42.672;23.230;2023-03-01T04:44:34;7.30;;;5.20;;
10987;SDS011;5547;42.672;23.230;2023-03-01T04:47:34;6.10;;;4.57;;
10987;SDS011;5547;42.672;23.230;2023-03-01T04:50:38;6.07;;;4.77;;
10987;SDS011;5547;42.672;23.230;2023-03-01T04:53:39;6.15;;;4.93;;
10987;SDS011;5547;42.672;23.230;2023-03-01T04:56:40;8.15;;;5.40;;
10987;SDS011;5547;42.672;23.230;2023-03-01T04:59:40;7.30;;;5.30;;
10987;SDS011;5547;42.672;23.230;2023-03-01T05:02:40;7.07;;;5.30;;
10987;SDS011;5547;42.672;23.230;2023-03-01T05:05:41;8.25;;;5.50;;
10987;SDS011;5547;42.672;23.230;2023-03-01T05:08:42;7.67;;;5.20;;
10987;SDS011;5547;42.672;23.230;2023-03-01T05:11:43;6.47;;;4.97;;
10987;SDS011;5547;42.672;23.230;2023-03-01T05:14:43;6.73;;;5.20;;
10987;SDS011;5547;42.672;23.230;2023-03-01T05:17:43;7.87;;;5.40;;
10987;SDS011;5547;42.672;23.230;2023-03-01T05:20:44;6.63;;;5.38;;
10987;SDS011;5547;42.672;23.230;2023-03-01T05:23:45;5.93;;;4.70;;
10987;SDS011;5547;42.672;23.230;2023-03-01T05:26:46;6.40;;;4.88;;
10987;SDS011;5547;42.672;23.230;2023-03-01T05:29:48;6.05;;;4.97;;
10987;SDS011;5547;42.672;23.230;2023-03-01T05:32:49;6.97;;;5.30;;
10987;SDS011;5547;42.672;23.230;2023-03-01T05:35:59;6.15;;;5.55;;
10987;SDS011;5547;42.672;23.230;2023-03-01T05:39:00;5.53;;;4.70;;
10987;SDS011;5547;42.672;23.230;2023-03-01T05:42:00;6.20;;;4.72;;
10987;SDS011;5547;42.672;23.230;2023-03-01T05:45:01;6.27;;;5.13;;
10987;SDS011;5547;42.672;23.230;2023-03-01T05:48:02;6.27;;;5.40;;
10987;SDS011;5547;42.672;23.230;2023-03-01T05:51:05;6.07;;;4.88;;
10987;SDS011;5547;42.672;23.230;2023-03-01T05:54:06;5.33;;;4.40;;
10987;SDS011;5547;42.672;23.230;2023-03-01T05:57:07;6.45;;;5.07;;
10987;SDS011;5547;42.672;23.230;2023-03-01T06:00:07;7.03;;;5.20;;
10987;SDS011;5547;42.672;23.230;2023-03-01T06:03:09;7.05;;;5.60;;
10987;SDS011;5547;42.672;23.230;2023-03-01T06:06:11;5.40;;;4.20;;
10987;SDS011;5547;42.672;23.230;2023-03-01T06:09:12;7.33;;;4.43;;
10987;SDS011;5547;42.672;23.230;2023-03-01T06:12:12;5.55;;;4.53;;
10987;SDS011;5547;42.672;23.230;2023-03-01T06:15:13;6.45;;;4.50;;
10987;SDS011;5547;42.672;23.230;2023-03-01T06:18:15;6.25;;;5.00;;
10987;SDS011;5547;42.672;23.230;2023-03-01T06:21:16;6.73;;;5.03;;
10987;SDS011;5547;42.672;23.230;2023-03-01T06:24:16;5.90;;;4.38;;
10987;SDS011;5547;42.672;23.230;2023-03-01T06:27:16;6.00;;;4.97;;
10987;SDS011;5547;42.672;23.230;2023-03-01T06:30:18;6.00;;;4.60;;
10987;SDS011;5547;42.672;23.230;2023-03-01T06:33:20;5.05;;;4.20;;
10987;SDS011;5547;42.672;23.230;2023-03-01T06:36:21;6.63;;;4.88;;
10987;SDS011;5547;42.672;23.230;2023-03-01T06:39:22;5.70;;;4.07;;
10987;SDS011;5547;42.672;23.230;2023-03-01T06:42:22;7.37;;;4.43;;
10987;SDS011;5547;42.672;23.230;2023-03-01T06:45:23;7.00;;;4.97;;
10987;SDS011;5547;42.672;23.230;2023-03-01T06:48:24;5.70;;;4.78;;
10987;SDS011;5547;42.672;23.230;2023-03-01T06:51:25;6.43;;;4.97;;
10987;SDS011;5547;42.672;23.230;2023-03-01T06:54:25;6.90;;;5.25;;
10987;SDS011;5547;42.672;23.230;2023-03-01T06:57:26;7.70;;;5.83;;
10987;SDS011;5547;42.672;23.230;2023-03-01T07:00:27;7.63;;;5.30;;
10987;SDS011;5547;42.672;23.230;2023-03-01T07:03:28;5.18;;;4.68;;
10987;SDS011;5547;42.672;23.230;2023-03-01T07:06:29;7.83;;;4.90;;
10987;SDS011;5547;42.672;23.230;2023-03-01T07:09:29;6.18;;;4.90;;
10987;SDS011;5547;42.672;23.230;2023-03-01T07:12:29;7.40;;;5.40;;
10987;SDS011;5547;42.672;23.230;2023-03-01T07:15:30;6.47;;;4.83;;
10987;SDS011;5547;42.672;23.230;2023-03-01T07:18:30;5.73;;;4.07;;
10987;SDS011;5547;42.672;23.230;2023-03-01T07:21:31;7.93;;;5.90;;
10987;SDS011;5547;42.672;23.230;2023-03-01T07:24:31;6.15;;;5.50;;
10987;SDS011;5547;42.672;23.230;2023-03-01T07:27:32;6.40;;;4.97;;
10987;SDS011;5547;42.672;23.230;2023-03-01T07:30:32;9.10;;;5.57;;
10987;SDS011;5547;42.672;23.230;2023-03-01T07:33:33;6.00;;;4.53;;
10987;SDS011;5547;42.672;23.230;2023-03-01T07:36:33;5.07;;;4.18;;
10987;SDS011;5547;42.672;23.230;2023-03-01T07:39:34;5.70;;;4.07;;
10987;SDS011;5547;42.672;23.230;2023-03-01T07:42:34;5.33;;;4.07;;
10987;SDS011;5547;42.672;23.230;2023-03-01T07:45:35;7.10;;;4.15;;
10987;SDS011;5547;42.672;23.230;2023-03-01T07:48:35;5.37;;;3.67;;
10987;SDS011;5547;42.672;23.230;2023-03-01T07:51:36;6.50;;;4.23;;
10987;SDS011;5547;42.672;23.230;2023-03-01T07:54:36;4.70;;;3.50;;
10987;SDS011;5547;42.672;23.230;2023-03-01T07:57:38;5.10;;;4.13;;
10987;SDS011;5547;42.672;23.230;2023-03-01T08:00:38;5.03;;;3.97;;
10987;SDS011;5547;42.672;23.230;2023-03-01T08:03:39;5.75;;;4.90;;
10987;SDS011;5547;42.672;23.230;2023-03-01T08:06:39;7.10;;;5.00;;
10987;SDS011;5547;42.672;23.230;2023-03-01T08:09:40;6.80;;;5.23;;
10987;SDS011;5547;42.672;23.230;2023-03-01T08:12:40;5.57;;;4.85;;
10987;SDS011;5547;42.672;23.230;2023-03-01T08:15:41;3.97;;;3.47;;
10987;SDS011;5547;42.672;23.230;2023-03-01T08:18:42;7.20;;;4.60;;
10987;SDS011;5547;42.672;23.230;2023-03-01T08:21:43;6.80;;;6.10;;
10987;SDS011;5547;42.672;23.230;2023-03-01T08:24:44;17.20;;;9.10;;
10987;SDS011;5547;42.672;23.230;2023-03-01T08:27:44;8.80;;;6.23;;
10987;SDS011;5547;42.672;23.230;2023-03-01T08:30:47;7.87;;;7.17;;
10987;SDS011;5547;42.672;23.230;2023-03-01T08:33:48;4.95;;;3.80;;
10987;SDS011;5547;42.672;23.230;2023-03-01T08:36:54;5.97;;;4.38;;
10987;SDS011;5547;42.672;23.230;2023-03-01T08:39:55;8.83;;;6.77;;
10987;SDS011;5547;42.672;23.230;2023-03-01T08:42:55;9.93;;;8.90;;
10987;SDS011;5547;42.672;23.230;2023-03-01T08:45:57;7.47;;;6.38;;
10987;SDS011;5547;42.672;23.230;2023-03-01T08:48:58;10.17;;;7.10;;
10987;SDS011;5547;42.672;23.230;2023-03-01T08:51:58;8.70;;;6.57;;
10987;SDS011;5547;42.672;23.230;2023-03-01T08:54:59;6.85;;;6.05;;
10987;SDS011;5547;42.672;23.230;2023-03-01T08:58:01;8.07;;;7.18;;
10987;SDS011;5547;42.672;23.230;2023-03-01T09:01:06;7.03;;;5.30;;
10987;SDS011;5547;42.672;23.230;2023-03-01T09:04:08;7.35;;;6.53;;
10987;SDS011;5547;42.672;23.230;2023-03-01T09:07:09;7.50;;;6.80;;
10987;SDS011;5547;42.672;23.230;2023-03-01T09:10:10;4.85;;;4.35;;
10987;SDS011;5547;42.672;23.230;2023-03-01T09:13:10;7.23;;;4.33;;
10987;SDS011;5547;42.672;23.230;2023-03-01T09:16:13;6.90;;;6.15;;
10987;SDS011;5547;42.672;23.230;2023-03-01T09:19:14;5.53;;;3.78;;
10987;SDS011;5547;42.672;23.230;2023-03-01T09:22:15;5.03;;;4.47;;
10987;SDS011;5547;42.672;23.230;2023-03-01T09:25:16;6.73;;;4.70;;
10987;SDS011;5547;42.672;23.230;2023-03-01T09:28:16;5.45;;;4.65;;
10987;SDS011;5547;42.672;23.230;2023-03-01T09:31:17;7.13;;;5.83;;
10987;SDS011;5547;42.672;23.230;2023-03-01T09:34:20;5.40;;;4.45;;
10987;SDS011;5547;42.672;23.230;2023-03-01T09:37:23;8.18;;;5.53;;
10987;SDS011;5547;42.672;23.230;2023-03-01T09:40:24;17.20;;;11.33;;
10987;SDS011;5547;42.672;23.230;2023-03-01T09:43:34;16.88;;;9.82;;
10987;SDS011;5547;42.672;23.230;2023-03-01T09:46:44;15.65;;;10.07;;
10987;SDS011;5547;42.672;23.230;2023-03-01T09:49:55;37.27;;;18.70;;
10987;SDS011;5547;42.672;23.230;2023-03-01T09:53:01;7.72;;;5.30;;
10987;SDS011;5547;42.672;23.230;2023-03-01T09:56:05;3.63;;;3.22;;
10987;SDS011;5547;42.672;23.230;2023-03-01T10:02:24;4.83;;;3.00;;
10987;SDS011;5547;42.672;23.230;2023-03-01T10:05:41;4.15;;;3.75;;
10987;SDS011;5547;42.672;23.230;2023-03-01T10:08:52;4.20;;;3.58;;
10987;SDS011;5547;42.672;23.230;2023-03-01T10:11:56;4.68;;;3.55;;
10987;SDS011;5547;42.672;23.230;2023-03-01T10:15:17;4.00;;;3.25;;
10987;SDS011;5547;42.672;23.230;2023-03-01T10:18:23;3.97;;;3.58;;
10987;SDS011;5547;42.672;23.230;2023-03-01T10:21:28;4.38;;;3.53;;
10987;SDS011;5547;42.672;23.230;2023-03-01T10:24:32;4.18;;;3.25;;
10987;SDS011;5547;42.672;23.230;2023-03-01T10:27:38;4.78;;;3.40;;
10987;SDS011;5547;42.672;23.230;2023-03-01T10:30:40;5.72;;;3.80;;
10987;SDS011;5547;42.672;23.230;2023-03-01T10:33:43;4.75;;;3.53;;
10987;SDS011;5547;42.672;23.230;2023-03-01T10:36:45;4.43;;;3.20;;
10987;SDS011;5547;42.672;23.230;2023-03-01T10:40:01;4.82;;;3.30;;
10987;SDS011;5547;42.672;23.230;2023-03-01T10:43:13;4.93;;;4.05;;
10987;SDS011;5547;42.672;23.230;2023-03-01T10:46:23;5.17;;;4.20;;
10987;SDS011;5547;42.672;23.230;2023-03-01T10:49:32;4.88;;;3.80;;
10987;SDS011;5547;42.672;23.230;2023-03-01T10:52:36;5.03;;;3.57;;
10987;SDS011;5547;42.672;23.230;2023-03-01T10:55:38;5.77;;;4.33;;
10987;SDS011;5547;42.672;23.230;2023-03-01T10:58:41;9.10;;;6.10;;
10987;SDS011;5547;42.672;23.230;2023-03-01T11:02:01;6.53;;;4.70;;
10987;SDS011;5547;42.672;23.230;2023-03-01T11:08:15;5.95;;;3.88;;
10987;SDS011;5547;42.672;23.230;2023-03-01T11:11:33;5.70;;;4.10;;
10987;SDS011;5547;42.672;23.230;2023-03-01T11:14:38;7.00;;;5.38;;
10987;SDS011;5547;42.672;23.230;2023-03-01T11:17:46;5.72;;;4.60;;
10987;SDS011;5547;42.672;23.230;2023-03-01T11:20:46;5.47;;;4.10;;
10987;SDS011;5547;42.672;23.230;2023-03-01T11:23:48;7.30;;;4.90;;
10987;SDS011;5547;42.672;23.230;2023-03-01T11:26:50;15.13;;;7.63;;
10987;SDS011;5547;42.672;23.230;2023-03-01T11:29:55;7.20;;;4.43;;
10987;SDS011;5547;42.672;23.230;2023-03-01T11:36:54;6.90;;;5.22;;
10987;SDS011;5547;42.672;23.230;2023-03-01T11:39:37;12.80;;;6.80;;
10987;SDS011;5547;42.672;23.230;2023-03-01T11:43:01;9.57;;;5.95;;
10987;SDS011;5547;42.672;23.230;2023-03-01T11:56:22;5.95;;;4.50;;
10987;SDS011;5547;42.672;23.230;2023-03-01T11:59:44;14.82;;;7.45;;
10987;SDS011;5547;42.672;23.230;2023-03-01T12:12:29;11.32;;;6.45;;
10987;SDS011;5547;42.672;23.230;2023-03-01T12:18:48;15.02;;;7.45;;
10987;SDS011;5547;42.672;23.230;2023-03-01T12:22:04;11.23;;;6.47;;
10987;SDS011;5547;42.672;23.230;2023-03-01T12:25:22;14.17;;;8.20;;
10987;SDS011;5547;42.672;23.230;2023-03-01T12:28:48;15.60;;;8.35;;
10987;SDS011;5547;42.672;23.230;2023-03-01T12:34:59;5.97;;;5.07;;
10987;SDS011;5547;42.672;23.230;2023-03-01T12:51:13;8.90;;;6.25;;
10987;SDS011;5547;42.672;23.230;2023-03-01T12:54:16;8.45;;;6.75;;
10987;SDS011;5547;42.672;23.230;2023-03-01T12:57:29;6.63;;;4.88;;
10987;SDS011;5547;42.672;23.230;2023-03-01T13:00:41;7.15;;;5.32;;
10987;SDS011;5547;42.672;23.230;2023-03-01T13:10:49;8.63;;;5.40;;
10987;SDS011;5547;42.672;23.230;2023-03-01T13:17:29;5.57;;;3.80;;
10987;SDS011;5547;42.672;23.230;2023-03-01T13:23:44;6.70;;;4.73;;
10987;SDS011;5547;42.672;23.230;2023-03-01T13:30:38;6.90;;;5.28;;
10987;SDS011;5547;42.672;23.230;2023-03-01T13:33:37;6.97;;;5.13;;
10987;SDS011;5547;42.672;23.230;2023-03-01T13:39:47;5.15;;;3.80;;
10987;SDS011;5547;42.672;23.230;2023-03-01T13:42:48;5.93;;;4.00;;
10987;SDS011;5547;42.672;23.230;2023-03-01T13:45:50;4.32;;;3.60;;
10987;SDS011;5547;42.672;23.230;2023-03-01T13:48:53;5.18;;;4.20;;
10987;SDS011;5547;42.672;23.230;2023-03-01T13:51:56;6.70;;;4.93;;
10987;SDS011;5547;42.672;23.230;2023-03-01T13:54:57;6.28;;;4.88;;
10987;SDS011;5547;42.672;23.230;2023-03-01T13:57:59;6.00;;;4.70;;
10987;SDS011;5547;42.672;23.230;2023-03-01T14:01:05;6.78;;;5.20;;
10987;SDS011;5547;42.672;23.230;2023-03-01T14:04:24;7.85;;;5.63;;
10987;SDS011;5547;42.672;23.230;2023-03-01T14:07:27;6.78;;;4.95;;
10987;SDS011;5547;42.672;23.230;2023-03-01T14:10:53;6.55;;;5.18;;
10987;SDS011;5547;42.672;23.230;2023-03-01T14:20:32;11.80;;;9.53;;
10987;SDS011;5547;42.672;23.230;2023-03-01T14:23:38;6.63;;;5.57;;
10987;SDS011;5547;42.672;23.230;2023-03-01T14:26:42;6.97;;;5.70;;
10987;SDS011;5547;42.672;23.230;2023-03-01T14:29:42;7.28;;;5.22;;
10987;SDS011;5547;42.672;23.230;2023-03-01T14:32:43;7.00;;;5.33;;
10987;SDS011;5547;42.672;23.230;2023-03-01T14:39:16;6.93;;;4.95;;
10987;SDS011;5547;42.672;23.230;2023-03-01T14:42:17;7.43;;;5.50;;
10987;SDS011;5547;42.672;23.230;2023-03-01T14:45:20;5.78;;;4.78;;
10987;SDS011;5547;42.672;23.230;2023-03-01T14:48:22;7.70;;;5.88;;
10987;SDS011;5547;42.672;23.230;2023-03-01T14:51:23;8.57;;;6.40;;
10987;SDS011;5547;42.672;23.230;2023-03-01T14:54:28;6.97;;;5.43;;
10987;SDS011;5547;42.672;23.230;2023-03-01T14:57:37;7.10;;;5.78;;
10987;SDS011;5547;42.672;23.230;2023-03-01T15:00:50;6.60;;;5.30;;
10987;SDS011;5547;42.672;23.230;2023-03-01T15:03:53;7.33;;;5.53;;
10987;SDS011;5547;42.672;23.230;2023-03-01T15:06:54;7.10;;;5.20;;
10987;SDS011;5547;42.672;23.230;2023-03-01T15:10:05;8.60;;;6.78;;
10987;SDS011;5547;42.672;23.230;2023-03-01T15:13:14;9.82;;;7.38;;
10987;SDS011;5547;42.672;23.230;2023-03-01T15:19:22;9.60;;;6.10;;
10987;SDS011;5547;42.672;23.230;2023-03-01T15:22:27;7.20;;;4.53;;
10987;SDS011;5547;42.672;23.230;2023-03-01T15:25:28;5.87;;;4.67;;
10987;SDS011;5547;42.672;23.230;2023-03-01T15:28:31;6.27;;;4.30;;
10987;SDS011;5547;42.672;23.230;2023-03-01T15:31:35;8.18;;;4.80;;
10987;SDS011;5547;42.672;23.230;2023-03-01T15:34:38;7.40;;;5.35;;
10987;SDS011;5547;42.672;23.230;2023-03-01T15:37:45;8.83;;;5.50;;
10987;SDS011;5547;42.672;23.230;2023-03-01T15:40:51;9.82;;;6.35;;
10987;SDS011;5547;42.672;23.230;2023-03-01T15:43:53;9.53;;;6.10;;
10987;SDS011;5547;42.672;23.230;2023-03-01T15:46:55;8.68;;;6.80;;
10987;SDS011;5547;42.672;23.230;2023-03-01T15:49:57;8.27;;;6.35;;
10987;SDS011;5547;42.672;23.230;2023-03-01T15:53:00;8.52;;;6.95;;
10987;SDS011;5547;42.672;23.230;2023-03-01T15:56:04;8.40;;;6.20;;
10987;SDS011;5547;42.672;23.230;2023-03-01T15:59:08;8.85;;;6.68;;
10987;SDS011;5547;42.672;23.230;2023-03-01T16:02:11;9.48;;;7.05;;
10987;SDS011;5547;42.672;23.230;2023-03-01T16:05:23;10.93;;;6.70;;
10987;SDS011;5547;42.672;23.230;2023-03-01T16:08:25;10.73;;;7.32;;
10987;SDS011;5547;42.672;23.230;2023-03-01T16:11:25;9.37;;;6.70;;
10987;SDS011;5547;42.672;23.230;2023-03-01T16:14:26;6.60;;;5.90;;
10987;SDS011;5547;42.672;23.230;2023-03-01T16:17:26;8.47;;;6.10;;
10987;SDS011;5547;42.672;23.230;2023-03-01T16:20:27;7.13;;;5.80;;
10987;SDS011;5547;42.672;23.230;2023-03-01T16:23:27;11.07;;;7.50;;
10987;SDS011;5547;42.672;23.230;2023-03-01T16:26:28;17.13;;;11.07;;
10987;SDS011;5547;42.672;23.230;2023-03-01T16:29:28;24.83;;;14.13;;
10987;SDS011;5547;42.672;23.230;2023-03-01T16:32:29;31.40;;;14.88;;
10987;SDS011;5547;42.672;23.230;2023-03-01T16:35:30;33.20;;;15.03;;
10987;SDS011;5547;42.672;23.230;2023-03-01T16:38:31;34.10;;;15.93;;
10987;SDS011;5547;42.672;23.230;2023-03-01T16:41:31;16.02;;;8.45;;
10987;SDS011;5547;42.672;23.230;2023-03-01T16:44:32;12.60;;;7.72;;
10987;SDS011;5547;42.672;23.230;2023-03-01T16:47:32;10.70;;;7.60;;
10987;SDS011;5547;42.672;23.230;2023-03-01T16:50:33;11.80;;;8.03;;
10987;SDS011;5547;42.672;23.230;2023-03-01T16:53:34;11.95;;;8.55;;
10987;SDS011;5547;42.672;23.230;2023-03-01T16:56:38;8.18;;;5.28;;
10987;SDS011;5547;42.672;23.230;2023-03-01T16:59:39;10.05;;;6.47;;
10987;SDS011;5547;42.672;23.230;2023-03-01T17:02:40;10.25;;;6.93;;
10987;SDS011;5547;42.672;23.230;2023-03-01T17:05:41;8.93;;;6.40;;
10987;SDS011;5547;42.672;23.230;2023-03-01T17:08:41;13.68;;;8.40;;
10987;SDS011;5547;42.672;23.230;2023-03-01T17:11:42;8.53;;;5.80;;
10987;SDS011;5547;42.672;23.230;2023-03-01T17:14:43;9.88;;;6.55;;
10987;SDS011;5547;42.672;23.230;2023-03-01T17:17:43;8.20;;;5.90;;
10987;SDS011;5547;42.672;23.230;2023-03-01T17:20:44;7.90;;;5.50;;
10987;SDS011;5547;42.672;23.230;2023-03-01T17:23:45;8.27;;;5.67;;
10987;SDS011;5547;42.672;23.230;2023-03-01T17:26:46;8.50;;;6.15;;
10987;SDS011;5547;42.672;23.230;2023-03-01T17:29:46;7.90;;;5.30;;
10987;SDS011;5547;42.672;23.230;2023-03-01T17:32:47;7.37;;;5.20;;
10987;SDS011;5547;42.672;23.230;2023-03-01T17:35:48;8.60;;;5.35;;
10987;SDS011;5547;42.672;23.230;2023-03-01T17:38:49;8.65;;;5.60;;
10987;SDS011;5547;42.672;23.230;2023-03-01T17:41:53;10.00;;;6.53;;
10987;SDS011;5547;42.672;23.230;2023-03-01T17:44:54;9.98;;;6.68;;
10987;SDS011;5547;42.672;23.230;2023-03-01T17:47:55;9.70;;;6.57;;
10987;SDS011;5547;42.672;23.230;2023-03-01T17:50:55;10.30;;;7.37;;
10987;SDS011;5547;42.672;23.230;2023-03-01T17:53:55;13.45;;;9.38;;
10987;SDS011;5547;42.672;23.230;2023-03-01T17:56:56;11.03;;;7.60;;
10987;SDS011;5547;42.672;23.230;2023-03-01T17:59:57;10.88;;;7.43;;
10987;SDS011;5547;42.672;23.230;2023-03-01T18:02:58;9.57;;;6.77;;
10987;SDS011;5547;42.672;23.230;2023-03-01T18:05:58;10.75;;;7.40;;
10987;SDS011;5547;42.672;23.230;2023-03-01T18:08:59;11.50;;;8.20;;
10987;SDS011;5547;42.672;23.230;2023-03-01T18:11:59;11.17;;;8.57;;
10987;SDS011;5547;42.672;23.230;2023-03-01T18:14:59;11.67;;;8.60;;
10987;SDS011;5547;42.672;23.230;2023-03-01T18:18:00;12.53;;;9.40;;
10987;SDS011;5547;42.672;23.230;2023-03-01T18:21:00;13.63;;;10.25;;
10987;SDS011;5547;42.672;23.230;2023-03-01T18:24:01;14.02;;;9.48;;
10987;SDS011;5547;42.672;23.230;2023-03-01T18:27:02;14.70;;;10.33;;
10987;SDS011;5547;42.672;23.230;2023-03-01T18:30:04;13.47;;;9.00;;
10987;SDS011;5547;42.672;23.230;2023-03-01T18:33:06;13.32;;;8.52;;
10987;SDS011;5547;42.672;23.230;2023-03-01T18:36:12;13.17;;;9.07;;
10987;SDS011;5547;42.672;23.230;2023-03-01T18:39:17;15.75;;;9.07;;
10987;SDS011;5547;42.672;23.230;2023-03-01T18:42:19;17.15;;;10.40;;
10987;SDS011;5547;42.672;23.230;2023-03-01T18:45:20;19.23;;;11.20;;
10987;SDS011;5547;42.672;23.230;2023-03-01T18:48:21;17.10;;;11.40;;
10987;SDS011;5547;42.672;23.230;2023-03-01T18:51:22;18.17;;;11.47;;
10987;SDS011;5547;42.672;23.230;2023-03-01T18:54:24;15.73;;;11.47;;
10987;SDS011;5547;42.672;23.230;2023-03-01T18:57:25;18.63;;;11.43;;
10987;SDS011;5547;42.672;23.230;2023-03-01T19:00:26;18.17;;;11.88;;
10987;SDS011;5547;42.672;23.230;2023-03-01T19:03:26;20.25;;;14.18;;
10987;SDS011;5547;42.672;23.230;2023-03-01T19:06:31;23.25;;;14.25;;
10987;SDS011;5547;42.672;23.230;2023-03-01T19:09:33;19.97;;;13.30;;
10987;SDS011;5547;42.672;23.230;2023-03-01T19:12:34;17.67;;;10.98;;
10987;SDS011;5547;42.672;23.230;2023-03-01T19:15:34;18.20;;;11.52;;
10987;SDS011;5547;42.672;23.230;2023-03-01T19:18:35;17.27;;;11.53;;
10987;SDS011;5547;42.672;23.230;2023-03-01T19:21:39;19.17;;;11.23;;
10987;SDS011;5547;42.672;23.230;2023-03-01T19:24:39;19.00;;;12.10;;
10987;SDS011;5547;42.672;23.230;2023-03-01T19:27:40;17.67;;;12.10;;
10987;SDS011;5547;42.672;23.230;2023-03-01T19:30:40;17.80;;;11.75;;
10987;SDS011;5547;42.672;23.230;2023-03-01T19:33:41;20.55;;;12.18;;
10987;SDS011;5547;42.672;23.230;2023-03-01T19:36:41;18.37;;;12.03;;
10987;SDS011;5547;42.672;23.230;2023-03-01T19:39:43;20.77;;;12.45;;
10987;SDS011;5547;42.672;23.230;2023-03-01T19:42:43;20.13;;;12.70;;
10987;SDS011;5547;42.672;23.230;2023-03-01T19:45:44;21.07;;;13.53;;
10987;SDS011;5547;42.672;23.230;2023-03-01T19:48:45;26.00;;;18.30;;